This is the latest recevied weather packets stored in our database for station/object DK7LH-6. If no packets are shown the sender has not sent any weather packets the latest 10 day(s).
| Time | Temp. | Humidity | Pressure | Rain* | Wind** | Luminosity | Snow |
|---|---|---|---|---|---|---|---|
| 1777745731 | 19.44° C | 66% | 1013.9 hPa | 0 mm | - | 36 W/m² | - |
| 1777744863 | 20° C | 64% | 1014 hPa | 0 mm | - | 54 W/m² | - |
| 1777743933 | 20.56° C | 61% | 1014 hPa | 0 mm | - | 71 W/m² | - |
| 1777743065 | 20.56° C | 60% | 1014 hPa | 0 mm | - | 69 W/m² | - |
| 1777742135 | 21.67° C | 58% | 1014 hPa | 0 mm | - | 79 W/m² | - |
| 1777741267 | 23.33° C | 48% | 1013.9 hPa | 0 mm | - | 97 W/m² | - |
| 1777740337 | 23.89° C | 47% | 1014 hPa | 0 mm | - | 103 W/m² | - |
| 1777739469 | 23.89° C | 46% | 1014.2 hPa | 0 mm | - | 68 W/m² | - |
| 1777738539 | 24.44° C | 44% | 1014.3 hPa | 0 mm | - | 104 W/m² | - |
| 1777737671 | 24.44° C | 44% | 1014.4 hPa | 0 mm | - | 121 W/m² | - |
| 1777736741 | 25° C | 43% | 1014.4 hPa | 0 mm | - | 119 W/m² | - |
| 1777735873 | 26.11° C | 42% | 1014.8 hPa | 0 mm | - | 307 W/m² | - |
| 1777734944 | 25° C | 43% | 1014.7 hPa | 0 mm | - | 174 W/m² | - |
| 1777734075 | 25.56° C | 42% | 1014.7 hPa | 0 mm | - | 243 W/m² | - |
| 1777733145 | 25° C | 43% | 1014.9 hPa | 0 mm | - | 126 W/m² | - |
| 1777732277 | 26.11° C | 39% | 1015.3 hPa | 0 mm | - | 386 W/m² | - |
| 1777731347 | 25.56° C | 39% | 1015.3 hPa | 0 mm | - | 429 W/m² | - |
| 1777730417 | 26.11° C | 38% | 1015.4 hPa | 0 mm | - | 360 W/m² | - |
| 1777729549 | 26.67° C | 36% | 1015.9 hPa | 0 mm | - | 405 W/m² | - |
| 1777728619 | 26.67° C | 36% | 1015.9 hPa | 0 mm | - | 329 W/m² | - |
| 1777727751 | 26.11° C | 35% | 1016 hPa | 0 mm | - | 549 W/m² | - |
| 1777726821 | 26.67° C | 35% | 1016.2 hPa | 0 mm | - | 487 W/m² | - |
| 1777725953 | 26.11° C | 34% | 1016 hPa | 0 mm | - | 689 W/m² | - |
| 1777725023 | 25.56° C | 32% | 1016.2 hPa | 0 mm | - | 422 W/m² | - |
| 1777724155 | 26.11° C | 31% | 1016.4 hPa | 0 mm | - | 362 W/m² | - |
* Rain latest hour (hover to see other rain measurements)
** Current wind speed in m/s (hover to see current wind gust speed)